Time;durP1;ratioP1;P1;durP2;ratioP2;P2;SDS_P1;SDS_P2;PMS_P1;PMS_P2;Temp;Humidity;BMP_temperature;BMP_pressure;BME280_temperature;BME280_humidity;BME280_pressure;Samples;Min_cycle;Max_cycle;Signal;HPM_P1;HPM_P2
2022/03/13 00:02:16;;;;;;;19.87;16.33;;;5.40;1.00;6.40;100644.00;;;;5004473;28;20919;-80
2022/03/13 00:04:48;;;;;;;21.30;16.50;;;5.70;1.00;6.30;100589.00;;;;5002311;28;20490;-79
2022/03/13 00:07:18;;;;;;;18.97;16.47;;;5.70;1.00;6.30;100626.00;;;;4997443;28;20482;-80
2022/03/13 00:09:50;;;;;;;21.13;16.90;;;5.70;1.00;6.30;100589.00;;;;4998355;28;20484;-78
2022/03/13 00:12:24;;;;;;;24.07;16.50;;;5.60;1.00;6.20;100616.00;;;;5015878;28;20461;-79
2022/03/13 00:14:55;;;;;;;19.63;15.57;;;6.00;1.00;6.20;100622.00;;;;4999303;28;20525;-78
2022/03/13 00:17:28;;;;;;;17.07;13.70;;;5.90;1.00;6.10;100636.00;;;;4996900;28;20489;-78
2022/03/13 00:19:59;;;;;;;21.93;15.97;;;5.60;1.00;6.10;100633.00;;;;4993864;28;20471;-78
2022/03/13 00:22:29;;;;;;;23.43;18.57;;;5.50;1.00;6.20;100636.00;;;;4997535;28;20473;-78
2022/03/13 00:25:00;;;;;;;22.67;17.77;;;5.60;1.00;5.90;67606.00;;;;4999465;28;20458;-77
2022/03/13 00:27:31;;;;;;;21.23;17.47;;;5.50;1.00;5.90;100632.00;;;;5004242;28;21272;-80
2022/03/13 00:30:00;;;;;;;21.60;17.57;;;5.40;1.00;5.90;100621.00;;;;5012779;28;20546;-77
2022/03/13 00:32:28;;;;;;;21.83;16.43;;;5.40;1.00;5.90;67562.00;;;;4998521;28;20486;-79
2022/03/13 00:34:56;;;;;;;19.13;16.77;;;5.80;1.00;5.80;100641.00;;;;4999899;28;20798;-78
2022/03/13 00:37:25;;;;;;;20.03;15.07;;;5.30;1.00;5.80;100624.00;;;;4999069;28;20497;-77
2022/03/13 00:39:55;;;;;;;21.87;16.83;;;5.20;1.00;5.90;100599.00;;;;4994342;28;20455;-78
2022/03/13 00:42:25;;;;;;;20.20;15.33;;;5.30;1.00;5.80;67551.00;;;;5015260;28;20462;-78
2022/03/13 00:44:53;;;;;;;22.93;17.10;;;5.30;1.00;5.70;67504.00;;;;4994752;28;20806;-78
2022/03/13 00:47:22;;;;;;;20.80;16.43;;;5.20;1.00;5.60;100637.00;;;;4995164;28;20474;-78
2022/03/13 00:49:51;;;;;;;22.37;16.07;;;5.10;1.00;5.50;100625.00;;;;4995301;28;20833;-79
2022/03/13 00:52:19;;;;;;;20.13;16.00;;;5.10;1.00;5.50;100626.00;;;;5003337;28;20458;-79
2022/03/13 00:54:48;;;;;;;21.60;16.97;;;5.00;1.00;5.40;100635.00;;;;4996827;28;21687;-79
2022/03/13 00:57:17;;;;;;;20.07;16.03;;;5.00;1.00;5.30;67438.00;;;;5003118;28;20477;-78
2022/03/13 00:59:47;;;;;;;22.80;17.33;;;4.90;1.00;5.50;100630.00;;;;5008545;28;20990;-77
2022/03/13 01:02:16;;;;;;;21.20;16.20;;;4.90;1.00;5.50;100621.00;;;;4993736;28;20461;-78
2022/03/13 01:04:51;;;;;;;26.33;15.33;;;4.90;1.00;5.40;67452.00;;;;5006731;28;20488;-79
2022/03/13 01:07:19;;;;;;;23.47;16.80;;;5.30;1.00;5.40;100560.00;;;;4989495;28;20493;-79
2022/03/13 01:09:48;;;;;;;19.90;14.63;;;4.90;1.00;5.30;100609.00;;;;4990163;28;20549;-79
2022/03/13 01:12:16;;;;;;;20.40;14.53;;;5.30;1.00;5.30;100606.00;;;;5000626;28;20508;-79
2022/03/13 01:14:47;;;;;;;25.17;16.57;;;4.90;1.00;5.30;100607.00;;;;4994621;28;20458;-78
2022/03/13 01:17:20;;;;;;;20.57;16.50;;;4.80;1.00;5.30;67436.00;;;;5001771;28;20484;-76
2022/03/13 01:19:49;;;;;;;21.20;16.90;;;4.80;1.00;5.40;67438.00;;;;4990017;28;20462;-78
2022/03/13 01:22:17;;;;;;;23.17;17.00;;;4.80;1.00;5.30;67433.00;;;;4995306;28;20457;-78
2022/03/13 01:24:46;;;;;;;23.47;18.63;;;4.80;1.00;5.40;100623.00;;;;4994151;28;20527;-78
2022/03/13 01:27:17;;;;;;;22.70;17.43;;;4.80;1.00;5.30;100590.00;;;;4995162;28;20513;-79
2022/03/13 01:29:48;;;;;;;21.90;15.93;;;4.80;1.00;52.70;158848.00;;;;4991563;28;20985;-78
2022/03/13 01:32:19;;;;;;;23.10;16.47;;;4.70;1.00;5.00;100563.00;;;;4990086;28;20477;-78
2022/03/13 01:34:50;;;;;;;25.30;17.50;;;4.70;1.00;5.00;100567.00;;;;4998303;28;20445;-78
2022/03/13 01:37:40;;;;;;;20.00;16.63;;;4.60;1.00;5.00;100570.00;;;;5011626;28;20525;-79
2022/03/13 01:40:20;;;;;;;21.97;16.13;;;4.60;1.00;5.00;100578.00;;;;4994567;28;20620;-78
2022/03/13 01:42:49;;;;;;;20.50;16.10;;;4.50;1.00;4.90;100587.00;;;;4994201;28;21328;-78
2022/03/13 01:45:20;;;;;;;23.70;15.93;;;4.50;1.00;4.90;100581.00;;;;5016162;28;20486;-78
2022/03/13 01:47:49;;;;;;;19.83;15.37;;;4.50;1.00;4.80;100588.00;;;;4999526;28;20506;-78
2022/03/13 01:50:18;;;;;;;18.53;15.63;;;4.40;1.00;4.80;100569.00;;;;5014940;28;20502;-79
2022/03/13 01:52:49;;;;;;;25.43;17.40;;;4.30;1.00;4.80;100575.00;;;;5024406;28;20457;-78
2022/03/13 01:55:18;;;;;;;19.77;14.93;;;4.30;1.00;4.80;100587.00;;;;5011404;28;20474;-78
2022/03/13 01:57:47;;;;;;;23.60;16.67;;;4.30;1.00;4.80;100590.00;;;;5023028;28;20474;-78
2022/03/13 02:00:20;;;;;;;20.20;16.80;;;4.50;1.00;4.80;100579.00;;;;5031534;28;20583;-78
2022/03/13 02:02:49;;;;;;;19.50;14.30;;;4.30;1.00;4.80;100590.00;;;;5018662;28;20486;-78
2022/03/13 02:05:30;;;;;;;23.50;15.73;;;4.30;1.00;4.70;100576.00;;;;5019022;28;20477;-78
2022/03/13 02:08:00;;;;;;;20.97;16.80;;;4.30;1.00;4.70;100574.00;;;;5034337;28;20493;-79
2022/03/13 02:10:31;;;;;;;20.20;15.70;;;4.20;1.00;4.60;100571.00;;;;5013709;28;20452;-78
2022/03/13 02:12:59;;;;;;;19.37;15.77;;;4.20;1.00;4.60;100578.00;;;;5022812;28;20540;-78
2022/03/13 02:15:32;;;;;;;19.30;15.20;;;4.20;1.00;4.60;100595.00;;;;5002138;28;20462;-78
2022/03/13 02:18:06;;;;;;;18.47;14.27;;;4.10;1.00;4.60;100552.00;;;;5035844;28;20451;-76
2022/03/13 02:20:41;;;;;;;22.57;17.53;;;4.10;1.00;4.50;100570.00;;;;5017365;28;20477;-78
2022/03/13 02:23:20;;;;;;;21.57;15.63;;;4.10;1.00;4.70;100575.00;;;;5019598;28;20457;-83
2022/03/13 02:25:51;;;;;;;17.77;13.53;;;4.10;1.00;4.60;100568.00;;;;5027544;28;20469;-77
2022/03/13 02:28:21;;;;;;;17.03;13.70;;;4.10;1.00;4.70;100561.00;;;;5007661;28;20472;-78
2022/03/13 02:30:50;;;;;;;15.73;13.77;;;4.10;1.00;4.50;100578.00;;;;5021870;28;20466;-78
2022/03/13 02:33:22;;;;;;;20.87;16.23;;;4.10;1.00;4.40;100550.00;;;;5008928;28;20457;-78
2022/03/13 02:35:54;;;;;;;19.13;14.23;;;4.00;1.00;4.40;100530.00;;;;4999248;28;20474;-78
2022/03/13 02:38:25;;;;;;;18.17;14.60;;;4.00;1.00;4.40;100558.00;;;;5000597;28;20853;-78
2022/03/13 02:40:54;;;;;;;18.33;14.80;;;3.90;1.00;4.40;100538.00;;;;5000457;28;20465;-80
2022/03/13 02:43:23;;;;;;;22.93;15.87;;;4.00;1.00;4.40;100556.00;;;;4997195;28;20450;-78
2022/03/13 02:45:53;;;;;;;18.90;15.20;;;3.90;1.00;4.40;100545.00;;;;4999244;28;20465;-78
2022/03/13 02:48:22;;;;;;;19.07;15.30;;;3.90;1.00;4.30;100568.00;;;;5013498;28;20455;-82
2022/03/13 02:50:50;;;;;;;15.63;13.00;;;4.10;1.00;4.40;100556.00;;;;4998097;28;20454;-78
2022/03/13 02:53:19;;;;;;;14.53;12.83;;;3.80;1.00;4.30;100542.00;;;;5001266;28;20458;-81
2022/03/13 02:55:48;;;;;;;17.83;14.10;;;3.80;1.00;4.40;100523.00;;;;5000187;28;20458;-82
2022/03/13 02:58:18;;;;;;;20.03;13.37;;;3.80;1.00;4.40;100560.00;;;;4997206;28;20553;-79
2022/03/13 03:00:49;;;;;;;15.13;12.70;;;3.90;1.00;4.30;100529.00;;;;5001514;28;20485;-81
2022/03/13 03:03:20;;;;;;;18.93;14.20;;;3.80;1.00;4.30;100552.00;;;;4999884;28;20464;-78
2022/03/13 03:05:49;;;;;;;17.73;13.90;;;3.90;1.00;4.20;100532.00;;;;4999097;28;20513;-78
2022/03/13 03:08:19;;;;;;;17.07;12.73;;;3.80;1.00;4.20;100516.00;;;;5002652;28;20447;-79
2022/03/13 03:10:49;;;;;;;17.30;14.23;;;3.70;1.00;4.10;100538.00;;;;4999966;28;20536;-81
2022/03/13 03:13:17;;;;;;;18.23;14.27;;;3.70;1.00;4.10;100539.00;;;;5003264;28;21595;-79
2022/03/13 03:15:46;;;;;;;16.20;13.60;;;3.60;1.00;4.00;100542.00;;;;5017323;28;20447;-83
2022/03/13 03:18:16;;;;;;;20.50;14.43;;;3.60;1.00;4.10;100553.00;;;;4997900;28;20493;-81
2022/03/13 03:20:45;;;;;;;17.70;13.50;;;3.60;1.00;4.10;100531.00;;;;5002046;28;20465;-82
2022/03/13 03:23:13;;;;;;;19.80;14.03;;;3.60;1.00;4.00;100537.00;;;;4998447;28;21219;-79
2022/03/13 03:25:42;;;;;;;17.13;12.93;;;3.50;1.00;4.00;100526.00;;;;4997054;28;20463;-82
2022/03/13 03:28:18;;;;;;;19.97;13.90;;;3.50;1.00;3.90;100535.00;;;;5000220;28;20469;-80
2022/03/13 03:30:47;;;;;;;17.70;14.30;;;3.50;1.00;4.00;100487.00;;;;5001954;28;20458;-79
2022/03/13 03:33:16;;;;;;;15.27;13.60;;;3.90;1.00;3.90;100538.00;;;;4989931;28;20467;-78
2022/03/13 03:35:44;;;;;;;16.63;12.73;;;3.50;1.00;3.90;100541.00;;;;5022297;28;20802;-78
2022/03/13 03:38:13;;;;;;;15.60;12.80;;;3.50;1.00;4.00;100539.00;;;;4999482;28;21524;-78
2022/03/13 03:40:42;;;;;;;18.23;12.90;;;3.50;1.00;4.10;100541.00;;;;5006705;28;20458;-78
2022/03/13 03:43:10;;;;;;;16.03;13.90;;;3.50;1.00;4.00;100542.00;;;;4999409;28;21414;-79
2022/03/13 03:45:40;;;;;;;18.13;15.27;;;3.80;1.00;4.00;100529.00;;;;4995495;28;20477;-78
2022/03/13 03:48:08;;;;;;;17.07;13.00;;;3.50;1.00;3.90;100544.00;;;;4998078;28;20909;-79
2022/03/13 03:50:37;;;;;;;17.03;13.50;;;3.80;1.00;3.90;100515.00;;;;4997674;28;20461;-79
2022/03/13 03:53:05;;;;;;;15.43;13.00;;;3.40;1.00;3.90;100543.00;;;;4994754;28;20451;-77
2022/03/13 03:55:33;;;;;;;15.90;13.27;;;3.40;1.00;3.90;100506.00;;;;4996657;28;20488;-82
2022/03/13 03:58:02;;;;;;;17.70;13.93;;;3.50;1.00;3.80;100538.00;;;;4997146;28;20478;-76
2022/03/13 04:00:30;;;;;;;18.67;14.87;;;3.40;1.00;3.80;100544.00;;;;4999429;28;20504;-77
2022/03/13 04:03:01;;;;;;;15.20;12.83;;;3.30;1.00;3.70;100540.00;;;;4997909;28;20469;-80
2022/03/13 04:05:29;;;;;;;17.93;14.20;;;3.30;1.00;3.60;100526.00;;;;4996173;28;20545;-80
2022/03/13 04:07:58;;;;;;;18.00;13.77;;;3.20;1.00;3.60;100522.00;;;;4996218;28;20871;-78
2022/03/13 04:10:27;;;;;;;18.67;14.67;;;3.10;1.00;3.50;100543.00;;;;4995123;28;20469;-78
2022/03/13 04:12:55;;;;;;;15.00;13.10;;;3.10;1.00;3.50;100524.00;;;;4996571;28;20455;-82
2022/03/13 04:15:24;;;;;;;16.93;13.93;;;3.00;1.00;3.50;100540.00;;;;4998039;28;20467;-78
2022/03/13 04:17:55;;;;;;;14.53;11.90;;;3.20;1.00;3.60;100535.00;;;;4997573;28;20481;-78
2022/03/13 04:20:26;;;;;;;19.17;13.27;;;3.00;1.00;3.50;100561.00;;;;4997526;28;21074;-85
2022/03/13 04:22:54;;;;;;;15.43;13.80;;;3.00;1.00;3.50;100551.00;;;;5005114;28;20544;-81
2022/03/13 04:25:25;;;;;;;20.10;13.17;;;3.40;1.00;3.50;100525.00;;;;5023074;28;20451;-78
2022/03/13 04:27:54;;;;;;;17.30;12.27;;;3.00;1.00;3.50;100545.00;;;;4996428;28;20501;-78
2022/03/13 04:30:22;;;;;;;14.80;12.33;;;3.00;1.00;3.40;100544.00;;;;5000934;28;20544;-79
2022/03/13 04:32:51;;;;;;;15.80;13.17;;;3.00;1.00;3.40;100543.00;;;;4995381;28;20548;-79
2022/03/13 04:35:19;;;;;;;17.17;14.60;;;3.00;1.00;3.40;100539.00;;;;4998614;28;20449;-78
2022/03/13 04:37:49;;;;;;;17.33;14.60;;;3.00;1.00;3.40;100547.00;;;;4995340;28;20483;-79
2022/03/13 04:40:17;;;;;;;15.60;13.63;;;2.90;1.00;3.40;100541.00;;;;4998943;28;20457;-79
2022/03/13 04:42:46;;;;;;;17.60;14.87;;;2.90;1.00;3.30;100538.00;;;;4997954;28;20450;-78
2022/03/13 04:45:16;;;;;;;14.47;12.17;;;2.90;1.00;3.50;100553.00;;;;5003784;28;20454;-81
2022/03/13 04:47:45;;;;;;;18.73;14.67;;;2.90;1.00;3.40;100562.00;;;;5007488;28;20478;-81
2022/03/13 04:50:14;;;;;;;13.97;12.53;;;2.90;1.00;3.40;100566.00;;;;5027875;28;20443;-80
2022/03/13 04:52:42;;;;;;;15.37;12.80;;;2.90;1.00;3.30;100547.00;;;;4996989;28;20463;-81
2022/03/13 04:55:13;;;;;;;15.93;11.63;;;2.90;1.00;3.40;100560.00;;;;5010461;28;20447;-83
2022/03/13 04:57:41;;;;;;;13.90;11.60;;;2.90;1.00;3.50;100550.00;;;;5035349;28;20541;-79
2022/03/13 05:00:10;;;;;;;17.00;14.20;;;2.90;1.00;3.40;100551.00;;;;5010665;28;20458;-76
2022/03/13 05:02:39;;;;;;;15.50;12.47;;;2.90;1.00;3.30;100550.00;;;;5020228;28;20466;-77
2022/03/13 05:05:09;;;;;;;16.03;13.20;;;2.80;1.00;3.20;100552.00;;;;5014944;28;20451;-77
2022/03/13 05:07:37;;;;;;;15.53;13.37;;;2.80;1.00;3.20;100495.00;;;;5000277;28;20496;-77
2022/03/13 05:10:07;;;;;;;15.87;12.80;;;2.70;1.00;3.20;100561.00;;;;4993348;28;20469;-78
2022/03/13 05:12:39;;;;;;;16.40;13.63;;;2.70;1.00;3.20;100551.00;;;;4990588;28;20537;-78
2022/03/13 05:15:08;;;;;;;18.87;13.23;;;2.70;1.00;3.20;100575.00;;;;5013496;28;20461;-77
2022/03/13 05:17:37;;;;;;;17.73;14.47;;;2.70;1.00;3.20;100557.00;;;;5015785;28;20526;-76
2022/03/13 05:20:08;;;;;;;16.03;13.13;;;2.70;1.00;3.20;100564.00;;;;5032780;28;20551;-77
2022/03/13 05:22:36;;;;;;;17.03;13.40;;;2.70;1.00;3.20;100562.00;;;;5019352;28;20532;-76
2022/03/13 05:25:10;;;;;;;18.10;13.60;;;2.90;1.00;3.20;100539.00;;;;5017398;28;20431;-77
2022/03/13 05:27:40;;;;;;;16.80;13.97;;;2.70;1.00;3.20;100570.00;;;;5016201;28;20481;-77
2022/03/13 05:30:10;;;;;;;21.13;13.77;;;2.70;1.00;3.10;100559.00;;;;5019085;28;20477;-78
2022/03/13 05:32:39;;;;;;;18.93;13.83;;;2.60;1.00;3.00;100551.00;;;;5024358;28;20457;-78
2022/03/13 05:35:10;;;;;;;16.73;13.43;;;2.60;1.00;2.90;100556.00;;;;4994736;28;20469;-77
2022/03/13 05:37:38;;;;;;;15.40;12.37;;;2.50;1.00;2.90;100552.00;;;;4999689;28;20478;-77
2022/03/13 05:40:13;;;;;;;14.70;12.77;;;2.50;1.00;2.90;100555.00;;;;4991944;28;20482;-77
2022/03/13 05:42:44;;;;;;;15.83;12.17;;;2.40;1.00;2.80;100565.00;;;;4994464;28;20446;-78
2022/03/13 05:45:15;;;;;;;17.67;12.63;;;2.40;1.00;2.90;100557.00;;;;4990489;28;20545;-78
2022/03/13 05:47:45;;;;;;;14.47;12.27;;;2.40;1.00;3.00;100569.00;;;;4995299;28;20477;-77
2022/03/13 05:50:14;;;;;;;17.60;13.03;;;2.40;1.00;2.90;100582.00;;;;5008908;28;20462;-77
2022/03/13 05:52:43;;;;;;;17.43;12.33;;;2.50;1.00;3.00;100567.00;;;;5011716;28;20454;-76
2022/03/13 05:55:12;;;;;;;17.73;12.17;;;2.50;1.00;3.00;100586.00;;;;4996068;28;20458;-77
2022/03/13 05:57:42;;;;;;;16.80;13.53;;;2.50;1.00;3.10;100591.00;;;;5013250;28;20488;-77
2022/03/13 06:00:15;;;;;;;17.00;12.77;;;2.60;1.00;3.10;100568.00;;;;5007323;28;20497;-76
2022/03/13 06:02:47;;;;;;;16.57;13.13;;;2.60;1.00;3.10;100590.00;;;;5026291;28;20464;-77
2022/03/13 06:05:18;;;;;;;16.77;12.60;;;2.60;1.00;3.10;100593.00;;;;4998274;28;20805;-77
2022/03/13 06:07:48;;;;;;;14.00;12.50;;;2.70;1.00;3.20;100607.00;;;;4990167;28;20482;-78
2022/03/13 06:10:24;;;;;;;18.93;12.23;;;2.80;1.00;3.20;100603.00;;;;4996418;28;20493;-77
2022/03/13 06:12:54;;;;;;;15.83;12.50;;;2.80;1.00;3.30;100609.00;;;;5007984;28;20454;-78
2022/03/13 06:15:23;;;;;;;15.70;11.87;;;2.80;1.00;3.50;100610.00;;;;4994911;28;20447;-78
2022/03/13 06:17:53;;;;;;;18.03;13.30;;;2.90;1.00;3.50;100615.00;;;;5002107;28;20475;-76
2022/03/13 06:20:22;;;;;;;14.80;12.70;;;3.00;1.00;3.70;100567.00;;;;4996112;28;21369;-78
2022/03/13 06:22:51;;;;;;;17.47;13.80;;;3.10;1.00;3.80;100601.00;;;;4994309;28;20455;-77
2022/03/13 06:25:19;;;;;;;16.27;12.70;;;3.20;1.00;3.90;100598.00;;;;5024253;28;20461;-77
2022/03/13 06:27:48;;;;;;;17.93;12.87;;;3.30;1.00;4.00;100604.00;;;;4996445;28;20473;-76
2022/03/13 06:30:20;;;;;;;14.90;12.17;;;3.40;1.00;4.10;100613.00;;;;4994681;28;21039;-78
2022/03/13 06:32:51;;;;;;;15.63;13.27;;;3.50;1.00;4.20;100602.00;;;;5008898;28;20470;-77
2022/03/13 06:35:21;;;;;;;14.30;12.47;;;3.70;1.00;4.10;100619.00;;;;4995869;28;20447;-78
2022/03/13 06:37:52;;;;;;;15.33;12.47;;;3.80;1.00;4.40;100633.00;;;;5011671;28;20485;-78
2022/03/13 06:40:23;;;;;;;15.17;12.70;;;3.80;1.00;4.50;100622.00;;;;5008973;28;20549;-78
2022/03/13 06:43:01;;;;;;;20.17;12.70;;;3.90;1.00;4.70;100624.00;;;;5009194;28;20462;-79
2022/03/13 06:45:32;;;;;;;15.13;12.47;;;4.10;1.00;4.80;100624.00;;;;5001967;28;20879;-80
2022/03/13 06:48:01;;;;;;;15.60;13.50;;;4.50;1.00;4.90;100631.00;;;;5027066;28;20544;-80
2022/03/13 06:50:29;;;;;;;18.13;14.40;;;4.30;1.00;5.00;100591.00;;;;5032422;28;20487;-84
2022/03/13 06:52:59;;;;;;;17.70;13.93;;;4.40;1.00;5.10;100631.00;;;;5013499;28;20493;-81
2022/03/13 06:55:28;;;;;;;17.87;12.83;;;4.60;1.00;5.20;100636.00;;;;5028685;28;20460;-80
2022/03/13 06:57:57;;;;;;;18.93;12.90;;;4.70;1.00;5.40;100644.00;;;;5012109;28;20478;-78
2022/03/13 07:00:25;;;;;;;16.93;12.53;;;5.00;1.00;5.40;100610.00;;;;5009155;28;20453;-80
2022/03/13 07:02:56;;;;;;;15.07;12.80;;;4.90;1.00;5.60;100642.00;;;;5009156;28;20764;-78
2022/03/13 07:05:25;;;;;;;12.50;11.00;;;5.00;1.00;5.70;100660.00;;;;5004921;28;20454;-77
2022/03/13 07:07:54;;;;;;;15.60;11.33;;;5.20;1.00;5.70;100655.00;;;;5005377;28;20477;-78
2022/03/13 07:10:23;;;;;;;14.20;10.83;;;5.30;1.00;5.80;100653.00;;;;5011548;28;20482;-78
2022/03/13 07:12:57;;;;;;;13.20;9.83;;;5.70;1.00;5.80;100616.00;;;;5000763;28;20477;-79
2022/03/13 07:15:26;;;;;;;11.37;9.47;;;5.40;1.00;6.00;100639.00;;;;5031494;28;20465;-77
2022/03/13 07:17:56;;;;;;;12.53;9.50;;;5.50;1.00;6.00;100627.00;;;;5016297;28;20478;-77
2022/03/13 07:20:25;;;;;;;12.23;9.83;;;5.60;1.00;6.10;100590.00;;;;5026610;28;20492;-83
2022/03/13 07:22:54;;;;;;;13.70;9.97;;;5.70;1.00;6.30;100572.00;;;;5023843;28;20445;-85
2022/03/13 07:25:23;;;;;;;12.80;9.70;;;5.80;1.00;6.30;100621.00;;;;5019478;28;20477;-81
2022/03/13 07:27:52;;;;;;;11.03;9.70;;;5.80;1.00;6.40;100627.00;;;;5023507;28;20538;-81
2022/03/13 07:30:20;;;;;;;11.23;9.33;;;6.20;1.00;6.40;100634.00;;;;5016931;28;20434;-81
2022/03/13 07:32:49;;;;;;;10.40;9.20;;;6.00;1.00;6.50;100621.00;;;;5035486;28;20462;-79
2022/03/13 07:35:19;;;;;;;12.00;8.60;;;6.10;1.00;6.50;100627.00;;;;5036476;28;20525;-82
2022/03/13 07:37:48;;;;;;;11.87;9.33;;;6.10;1.00;6.60;100622.00;;;;5024583;28;20513;-80
2022/03/13 07:40:17;;;;;;;11.30;8.30;;;6.20;1.00;6.60;100634.00;;;;5031141;28;20462;-79
2022/03/13 07:42:45;;;;;;;9.57;8.43;;;6.40;1.00;6.60;100636.00;;;;5027427;28;20475;-79
2022/03/13 07:45:15;;;;;;;9.50;7.53;;;6.30;1.00;6.70;100635.00;;;;5008216;28;20442;-79
2022/03/13 07:47:48;;;;;;;10.30;7.73;;;6.70;1.00;6.80;100628.00;;;;5010837;28;20473;-80
2022/03/13 07:50:19;;;;;;;11.33;9.30;;;6.40;1.00;6.80;100629.00;;;;5007542;28;20453;-78
2022/03/13 07:52:47;;;;;;;11.50;8.30;;;6.80;1.00;6.80;100642.00;;;;5007185;28;20447;-80
2022/03/13 07:55:16;;;;;;;11.90;8.70;;;6.50;1.00;7.00;100620.00;;;;5025018;28;20450;-79
2022/03/13 07:57:44;;;;;;;9.03;7.90;;;6.60;1.00;7.10;100646.00;;;;5023257;28;20533;-84
2022/03/13 08:00:17;;;;;;;10.60;8.67;;;6.70;1.00;7.30;100613.00;;;;5005902;28;20479;-79
2022/03/13 08:02:47;;;;;;;10.03;8.00;;;6.80;1.00;7.20;100627.00;;;;5004855;28;20481;-78
2022/03/13 08:05:20;;;;;;;15.13;10.03;;;6.90;1.00;7.10;100639.00;;;;5025322;28;20541;-82
2022/03/13 08:07:49;;;;;;;10.93;8.50;;;6.80;1.00;7.20;100620.00;;;;5005725;28;20474;-80
2022/03/13 08:10:20;;;;;;;14.20;8.37;;;6.80;1.00;7.30;100604.00;;;;5015784;28;20553;-82
2022/03/13 08:12:49;;;;;;;9.07;7.53;;;6.90;1.00;7.20;100634.00;;;;5030278;28;20449;-79
2022/03/13 08:15:20;;;;;;;8.57;7.70;;;6.90;1.00;7.30;100611.00;;;;5023917;28;20462;-81
2022/03/13 08:17:48;;;;;;;11.20;8.67;;;6.90;1.00;7.20;100583.00;;;;5013656;28;20476;-78
2022/03/13 08:20:17;;;;;;;11.57;9.00;;;6.90;1.00;7.20;100609.00;;;;5031904;28;20485;-80
2022/03/13 08:22:47;;;;;;;10.37;8.87;;;6.90;1.00;7.40;100535.00;;;;5019394;28;20561;-79
2022/03/13 08:25:19;;;;;;;10.87;8.20;;;7.00;1.00;7.40;100632.00;;;;5005881;28;20449;-79
2022/03/13 08:27:48;;;;;;;10.43;8.77;;;7.10;1.00;7.50;100634.00;;;;5000984;28;20509;-80
2022/03/13 08:30:16;;;;;;;11.20;8.33;;;7.10;1.00;7.60;100635.00;;;;5024407;28;20454;-80
2022/03/13 08:32:45;;;;;;;10.60;8.17;;;7.20;1.00;7.80;100627.00;;;;5005990;28;20457;-79
2022/03/13 08:35:14;;;;;;;14.30;9.00;;;7.40;1.00;8.00;100643.00;;;;5019177;28;20458;-79
2022/03/13 08:37:43;;;;;;;10.40;7.97;;;7.60;1.00;7.90;100641.00;;;;5008247;28;20477;-80
2022/03/13 08:40:14;;;;;;;10.63;8.10;;;7.80;1.00;8.20;100518.00;;;;5013472;28;20554;-80
2022/03/13 08:42:43;;;;;;;11.33;8.30;;;7.90;1.00;8.30;100674.00;;;;5021748;28;20460;-78
2022/03/13 08:45:12;;;;;;;9.40;8.07;;;7.90;1.00;8.30;100554.00;;;;5011021;28;20478;-80
2022/03/13 08:47:41;;;;;;;8.60;7.43;;;8.00;1.00;8.30;100543.00;;;;5018468;28;20474;-78
2022/03/13 08:53:01;;;;;;;8.43;7.40;;;8.10;1.00;8.40;100597.00;;;;5020180;28;20563;-81
2022/03/13 08:55:31;;;;;;;9.03;7.27;;;8.10;1.00;52.70;160373.00;;;;5014630;28;20462;-79
2022/03/13 08:58:00;;;;;;;7.77;7.00;;;8.30;1.00;8.60;100620.00;;;;5030357;28;20469;-79
2022/03/13 09:00:28;;;;;;;8.57;7.70;;;8.50;1.00;8.80;100587.00;;;;5023819;28;20505;-81
2022/03/13 09:02:57;;;;;;;13.03;8.17;;;8.50;1.00;8.90;100620.00;;;;5007916;28;20459;-79
2022/03/13 09:05:26;;;;;;;10.87;7.43;;;8.70;1.00;8.80;100616.00;;;;5003672;28;20455;-79
2022/03/13 09:07:54;;;;;;;8.50;7.60;;;8.60;1.00;8.70;100606.00;;;;5000895;28;20478;-79
2022/03/13 09:10:22;;;;;;;9.60;7.53;;;8.60;1.00;8.70;100608.00;;;;5016758;28;20446;-78
2022/03/13 09:12:52;;;;;;;10.33;8.40;;;8.60;1.00;9.10;100613.00;;;;5001467;28;20474;-79
2022/03/13 09:15:21;;;;;;;9.10;7.60;;;8.80;1.00;9.00;100559.00;;;;5010801;28;20526;-78
2022/03/13 09:17:53;;;;;;;9.50;7.67;;;8.80;1.00;9.00;100589.00;;;;5000018;28;20570;-78
2022/03/13 09:20:22;;;;;;;8.90;7.43;;;8.80;1.00;9.20;100610.00;;;;5008093;28;20531;-79
2022/03/13 09:22:51;;;;;;;9.57;8.33;;;9.20;1.00;9.30;100666.00;;;;5013132;28;20457;-79
2022/03/13 09:25:20;;;;;;;11.27;7.97;;;9.10;1.00;9.40;100582.00;;;;5013957;28;20464;-79
2022/03/13 09:27:48;;;;;;;8.50;7.60;;;9.20;1.00;9.50;100602.00;;;;5009403;28;20473;-78
2022/03/13 09:30:18;;;;;;;9.63;7.30;;;9.60;1.00;9.60;100637.00;;;;5015232;28;20497;-78
2022/03/13 09:32:49;;;;;;;11.10;7.80;;;9.40;1.00;9.60;100613.00;;;;5031007;28;20857;-78
2022/03/13 09:35:18;;;;;;;9.80;7.67;;;9.50;1.00;9.70;100543.00;;;;5000372;28;20459;-77
2022/03/13 09:37:46;;;;;;;9.20;8.20;;;9.60;1.00;9.60;100611.00;;;;5017022;28;20485;-81
2022/03/13 09:40:18;;;;;;;9.57;8.13;;;9.50;1.00;9.70;100587.00;;;;5023411;28;20466;-78
2022/03/13 09:42:47;;;;;;;10.60;9.30;;;9.50;1.00;9.70;100612.00;;;;5003516;28;20529;-78
2022/03/13 09:45:16;;;;;;;8.53;7.67;;;9.50;1.00;9.90;100592.00;;;;5004103;28;20454;-79
2022/03/13 09:47:46;;;;;;;9.00;8.03;;;9.70;1.00;10.00;100619.00;;;;5003896;28;20506;-80
2022/03/13 09:50:15;;;;;;;9.33;7.50;;;9.90;1.00;217.30;161029.00;;;;5003159;28;20430;-79
2022/03/13 09:52:44;;;;;;;12.43;7.80;;;10.00;1.00;10.20;100607.00;;;;5005680;28;20537;-78
2022/03/13 09:55:14;;;;;;;8.27;7.17;;;10.10;1.00;10.20;100565.00;;;;5001927;28;20470;-80
2022/03/13 09:57:46;;;;;;;8.27;7.40;;;10.00;1.00;10.30;100612.00;;;;4994051;28;21606;-78
2022/03/13 10:00:18;;;;;;;9.93;7.87;;;10.10;1.00;10.20;100615.00;;;;4997462;28;20517;-82
2022/03/13 10:02:49;;;;;;;11.40;9.00;;;10.10;1.00;10.30;100626.00;;;;4996661;28;20466;-77
2022/03/13 10:05:20;;;;;;;8.57;7.67;;;10.10;1.00;10.30;100605.00;;;;5002562;28;20430;-77
2022/03/13 10:07:57;;;;;;;8.97;8.03;;;10.60;1.00;10.50;100596.00;;;;5012785;28;20553;-78
2022/03/13 10:10:28;;;;;;;10.73;8.37;;;10.40;1.00;10.60;100615.00;;;;5018987;28;20438;-78
2022/03/13 10:13:00;;;;;;;9.00;7.47;;;10.50;1.00;10.70;68640.00;;;;5032173;28;20458;-80
2022/03/13 10:15:42;;;;;;;7.73;6.93;;;10.60;1.00;10.80;100600.00;;;;5016111;28;20476;-77
2022/03/13 10:18:17;;;;;;;9.13;7.37;;;10.70;1.00;10.80;100579.00;;;;5022241;28;20466;-79
2022/03/13 10:20:47;;;;;;;9.37;7.37;;;10.70;1.00;10.90;100572.00;;;;5008925;28;21149;-77
2022/03/13 10:23:19;;;;;;;10.03;8.40;;;10.70;1.00;11.00;100576.00;;;;5009413;28;20484;-79
2022/03/13 10:25:50;;;;;;;8.47;7.67;;;10.90;1.00;11.00;100545.00;;;;5000830;28;20530;-79
2022/03/13 10:28:21;;;;;;;8.50;7.40;;;10.90;1.00;11.10;100552.00;;;;5011499;28;20501;-79
2022/03/13 10:31:11;;;;;;;8.50;7.23;;;11.00;1.00;11.10;100577.00;;;;4993001;28;20542;-78
2022/03/13 10:33:58;;;;;;;8.87;7.53;;;11.00;1.00;11.20;100567.00;;;;4991651;28;20450;-78
2022/03/13 10:36:35;;;;;;;10.40;8.33;;;11.20;1.00;11.30;100581.00;;;;4996529;28;20473;-78
2022/03/13 10:39:11;;;;;;;8.07;7.27;;;11.20;1.00;11.50;100538.00;;;;5003043;28;20481;-78
2022/03/13 10:41:45;;;;;;;10.40;7.57;;;11.30;1.00;11.60;100547.00;;;;4997624;28;20502;-78
2022/03/13 10:44:21;;;;;;;8.93;7.80;;;11.40;1.00;11.50;100552.00;;;;5014973;28;20460;-77
2022/03/13 10:46:55;;;;;;;10.10;7.30;;;11.50;1.00;11.60;100555.00;;;;5018305;28;20492;-77
2022/03/13 10:49:42;;;;;;;8.53;7.50;;;11.90;1.00;11.70;100589.00;;;;5033803;28;20524;-80
2022/03/13 10:52:26;;;;;;;9.87;7.43;;;11.60;1.00;11.90;100548.00;;;;5013603;28;20500;-77
2022/03/13 10:54:56;;;;;;;9.60;7.27;;;12.00;1.00;12.00;100529.00;;;;5032025;28;20446;-78
2022/03/13 10:57:25;;;;;;;10.73;7.43;;;11.90;1.00;12.20;100514.00;;;;5013303;28;20505;-78
2022/03/13 11:00:11;;;;;;;8.70;7.80;;;12.10;1.00;12.20;100589.00;;;;5002858;28;20458;-79
2022/03/13 11:02:40;;;;;;;9.77;8.00;;;12.20;1.00;12.30;100572.00;;;;4998108;28;20469;-79
2022/03/13 11:05:10;;;;;;;8.57;7.47;;;12.20;1.00;12.30;100572.00;;;;5000810;28;20538;-80
2022/03/13 11:07:38;;;;;;;8.30;7.40;;;12.10;1.00;12.40;100566.00;;;;4997468;28;20469;-79
2022/03/13 11:10:09;;;;;;;9.63;8.30;;;12.60;1.00;12.50;100569.00;;;;5011905;28;20491;-79
2022/03/13 11:12:39;;;;;;;10.20;8.20;;;12.40;1.00;12.50;100558.00;;;;5007277;28;20461;-78
2022/03/13 11:15:11;;;;;;;9.40;8.10;;;12.40;1.00;12.60;100532.00;;;;5010027;28;20512;-80